Vancouver, Washington
Current Conditions -  °F | °C
As of 2:40 PM on Wednesday 22 Oct 2014 (Local Time) from KVUO Reporting Station
Moderate Rain Moderate Rain  
Wind Chill: 57°   Ceiling: 3700
Heat Index: 57°   Visibility: 3mi
Dew Point: 54°   Wind: 3mph
Humidity: 89%   Direction: 120°ESE
Pressure: 29.71"   Gusts: NA
Location:  45.63°N, 122.67°W
Report Text: KVUO 222140Z AUTO 12003KT 3SM RA BR BKN037 OVC044 14/12 A2971 RMK AO2 P0025 T01390122
Loading
Personal Weather Stations






























Interactive Weather Map New forecast layout! Learn more

10-Day Weather Forecast

Advertisements
Track Severe Weather on mobile